• Join FlightAware (Why Join?)
  • Login
  • US Flag 
04:03PM EDT


 

Airport Tracker/Info


-or-


 

Live Flight TrackerFlight Track Log ✈ N100PU ✈ 08-Oct-2013 ✈ KEWR - KLAF

Flight Track Log - Related Links

Times and Time Zones

All times are in EDT time to prevent confusion due to time zone crossing. See the N100PU flight status page for this flight to view local times or setup timezone preferences in your user account.

Time Position Orientation Groundspeed Altitude Reporting Facility
EDT Latitude Longitude Course Direction KTS MPH feet Rate Location/Type
01:00PM 40.7333 -74.1167 246° West 177 204 4,000  Level New York TRACON
01:01PM 40.7833 -74.1333 346° North 210 242 6,400 1,980 Climbing New York TRACON
01:02PM 40.8000 -74.2000 288° West 233 268 8,000 1,200 Climbing New York TRACON
01:03PM 40.8333 -74.3000 294° West 246 283 8,900 780 Climbing New York TRACON
01:04PM 40.8500 -74.3667 288° West 246 283 9,600 1,440 Climbing New York TRACON
01:05PM 40.7110 -74.7726 246° West  Level Estimated
01:05PM 40.8500 -74.4833 270° West 257 296 12,000  Level New York TRACON
01:07PM 40.8336 -74.7011 264° West 278 320 15,700 1,620 Climbing New York Center
01:08PM 40.8267 -74.7858 264° West 268 308 17,400 1,620 Climbing New York Center
01:09PM 40.8208 -74.8925 266° West 262 302 19,000 1,500 Climbing New York Center
01:10PM 40.8158 -74.9744 265° West 257 296 20,500 1,620 Climbing New York Center
01:11PM 40.8083 -75.0672 264° West 257 296 22,300 1,800 Climbing New York Center
01:12PM 40.7825 -75.1506 248° West 252 290 24,100 1,800 Climbing New York Center
01:13PM 40.7519 -75.2417 246° West 252 290 26,000 1,740 Climbing New York Center
01:14PM 40.7303 -75.3169 249° West 259 298 27,600 1,680 Climbing New York Center
01:15PM 40.7044 -75.3944 246° West 248 285 29,400 1,380 Climbing New York Center
01:16PM 40.6828 -75.4697 249° West 237 273 30,400 960 Climbing New York Center
01:17PM 40.6542 -75.5553 246° West 242 278 31,400 1,440 Climbing New York Center
01:18PM 40.6281 -75.6328 246° West 247 284 33,300 1,620 Climbing New York Center
01:19PM 40.6064 -75.7025 248° West 236 272 34,700 1,200 Climbing New York Center
01:20PM 40.5850 -75.7692 247° West 219 252 35,800 1,020 Climbing New York Center
01:21PM 40.5633 -75.8358 247° West 207 238 36,800 720 Climbing New York Center
01:22PM 40.5417 -75.9053 248° West 207 238 37,300 600 Climbing New York Center
01:23PM 40.5111 -75.9822 242° Southwest 214 246 38,000 300 Climbing New York Center
01:24PM 40.4869 -76.0567 247° West 219 252 38,000  Level New York Center
01:25PM 40.4583 -76.1364 245° Southwest 232 267 38,000  Level New York Center
01:26PM 40.4314 -76.2244 248° West 246 283 38,000  Level New York Center
01:27PM 40.4003 -76.3144 246° West 262 302 38,000  Level New York Center
01:28PM 40.3789 -76.4136 254° West 273 314 38,000  Level New York Center
01:29PM 40.3614 -76.5158 257° West 288 331 38,000  Level New York Center
01:30PM 40.3436 -76.6206 257° West 293 337 38,000  Level New York Center
01:31PM 40.3242 -76.7169 255° West 293 337 38,000  Level New York Center
01:32PM 40.2886 -76.8064 242° Southwest 287 330 38,000  Level New York Center
01:33PM 40.2506 -76.8928 240° Southwest 281 323 38,000  Level New York Center
01:34PM 40.2164 -76.9906 245° Southwest 281 323 38,000  Level New York Center
01:35PM 40.1897 -77.0614 244° Southwest 281 323 38,000  Level New York Center
01:36PM 40.1536 -77.1506 242° Southwest 281 323 38,000  Level New York Center
01:37PM 40.1222 -77.2672 251° West 281 323 38,000  Level New York Center
01:38PM 40.1192 -77.3592 268° West 286 329 38,000  Level New York Center
01:40PM 40.1158 -77.5728 269° West 309 356 38,000  Level Cleveland Center
01:41PM 40.1133 -77.6875 268° West 313 360 38,000  Level Cleveland Center
01:42PM 40.1114 -77.8036 269° West 317 365 38,000  Level Cleveland Center
01:43PM 40.1089 -77.9358 269° West 322 371 38,000  Level Cleveland Center
01:44PM 40.1069 -78.0542 269° West 326 375 38,000  Level Cleveland Center
01:45PM 40.1044 -78.1717 268° West 326 375 38,000  Level Cleveland Center
01:46PM 40.1019 -78.2892 268° West 326 375 38,000  Level Cleveland Center
01:47PM 40.0994 -78.4083 268° West 327 376 38,000  Level Cleveland Center
01:48PM 40.0958 -78.5508 268° West 329 379 38,000  Level Cleveland Center
01:49PM 40.0922 -78.6717 268° West 331 381 38,000  Level Cleveland Center
01:50PM 40.0894 -78.7917 268° West 332 382 38,000  Level Cleveland Center
01:51PM 40.0861 -78.9147 268° West 337 388 38,000  Level Cleveland Center
01:52PM 40.0836 -79.0439 269° West 352 405 38,000  Level Cleveland Center
01:53PM 40.0803 -79.1667 268° West 343 395 38,000  Level Cleveland Center
01:54PM 40.0750 -79.3167 267° West 345 397 38,000  Level Cleveland Center
01:55PM 40.0717 -79.4306 268° West 348 400 38,000  Level Cleveland Center
01:56PM 40.0672 -79.5564 267° West 348 400 38,000  Level Cleveland Center
01:57PM 40.0636 -79.7097 268° West 352 405 38,000  Level Cleveland Center
01:58PM 40.0589 -79.8378 267° West 352 405 38,000  Level Cleveland Center
01:59PM 40.0539 -79.9650 267° West 350 403 38,000  Level Cleveland Center
02:00PM 40.0481 -80.0925 267° West 350 403 38,000  Level Cleveland Center
02:01PM 40.0433 -80.2206 267° West 351 404 38,000  Level Cleveland Center
02:03PM 40.0389 -80.3486 267° West 353 406 38,000  Level Cleveland Center
02:04PM 40.0328 -80.4767 266° West 354 407 38,000  Level Cleveland Center
02:05PM 40.0283 -80.6033 267° West 350 403 38,000  Level Cleveland Center
02:06PM 40.0206 -80.7558 266° West 351 404 38,000  Level Cleveland Center
02:07PM 40.0244 -80.8831 272° West 353 406 38,000  Level Cleveland Center
02:07PM 40.0314 -80.9806 275° West 353 406 38,000  Level Indianapolis Center
02:08PM 40.0431 -81.1083 277° West 351 404 38,000  Level Indianapolis Center
02:09PM 40.0544 -81.2375 277° West 354 407 38,000  Level Indianapolis Center
02:10PM 40.0644 -81.3656 276° West 353 406 38,000  Level Indianapolis Center
02:11PM 40.0764 -81.4928 277° West 350 403 38,000  Level Indianapolis Center
02:13PM 40.0878 -81.6203 277° West 350 403 38,000  Level Indianapolis Center
02:14PM 40.0978 -81.7511 276° West 355 409 38,000 -120 Level Indianapolis Center
02:15PM 40.1097 -81.8856 277° West 349 402 37,800 -540 Descending Indianapolis Center
02:16PM 40.1200 -82.0186 276° West 365 420 36,900 -960 Descending Indianapolis Center
02:17PM 40.1317 -82.1556 276° West 378 435 35,900 -960 Descending Indianapolis Center
02:18PM 40.1422 -82.2931 276° West 382 440 35,000 -480 Descending Indianapolis Center
02:19PM 40.1553 -82.4544 276° West 375 432 35,000  Level Indianapolis Center
02:20PM 40.1647 -82.5878 275° West 372 428 35,000 -240 Level Indianapolis Center
02:21PM 40.1753 -82.7194 276° West 366 421 34,600 -960 Descending Indianapolis Center
02:22PM 40.1850 -82.8558 275° West 375 432 33,100 -1,500 Descending Indianapolis Center
02:23PM 40.1947 -82.9911 275° West 376 433 31,600 -1,440 Descending Indianapolis Center
02:24PM 40.2047 -83.1275 276° West 380 437 30,200 -1,620 Descending Indianapolis Center
02:25PM 40.2172 -83.2933 276° West 385 443 28,400 -1,080 Descending Indianapolis Center
02:26PM 40.2264 -83.4292 275° West 380 437 28,000 -240 Descending Indianapolis Center
02:27PM 40.2356 -83.5628 275° West 375 432 28,000  Level Indianapolis Center
02:28PM 40.2444 -83.6950 275° West 370 426 28,000 -480 Level Indianapolis Center
02:29PM 40.2525 -83.8278 275° West 370 426 27,100 -1,260 Descending Indianapolis Center
02:30PM 40.2633 -83.9972 275° West 391 450 25,400 -1,440 Descending Indianapolis Center
02:31PM 40.2725 -84.1361 275° West 387 445 24,200 -1,200 Descending Indianapolis Center
02:32PM 40.2806 -84.2725 274° West 380 437 23,000 -1,200 Descending Indianapolis Center
02:33PM 40.2892 -84.4056 275° West 371 427 21,800 -1,200 Descending Indianapolis Center
02:34PM 40.2961 -84.5381 274° West 369 425 20,600 -1,260 Descending Indianapolis Center
02:35PM 40.3050 -84.6694 275° West 364 419 19,300 -1,320 Descending Indianapolis Center
02:36PM 40.3131 -84.8242 274° West 359 413 17,900 -1,140 Descending Indianapolis Center
02:37PM 40.3194 -84.9456 274° West 352 405 17,000 -960 Descending Indianapolis Center
02:38PM 40.3261 -85.0714 274° West 349 402 16,000 -1,020 Descending Indianapolis Center
02:39PM 40.3331 -85.1931 274° West 339 390 15,000 -1,020 Descending Indianapolis Center
02:40PM 40.3383 -85.3128 273° West 332 382 14,000 -1,080 Descending Indianapolis Center
02:41PM 40.3469 -85.4550 275° West 329 379 12,800 -1,080 Descending Indianapolis Center
02:42PM 40.3522 -85.5708 273° West 324 373 11,800 -900 Descending Indianapolis Center
02:43PM 40.3583 -85.6833 274° West 316 364 11,000 -420 Descending Indianapolis Center
02:44PM 40.3619 -85.7892 273° West 301 346 11,000 -420 Level Indianapolis Center
02:45PM 40.3672 -85.8753 275° West 298 343 10,300 -1,020 Descending Chicago Center
02:45PM 40.3672 -85.8992 270° West 299 344 10,100 -1,020 Descending Chicago Center
02:46PM 40.3697 -85.9814 272° West 296 341 9,300 -1,140 Descending Chicago Center
02:46PM 40.3681 -86.0083 265° West 290 334 9,000 -1,020 Descending Chicago Center
02:47PM 40.3708 -86.0825 273° West 283 326 8,300 -1,020 Descending Chicago Center
02:47PM 40.3711 -86.1067 271° West 276 318 8,000 -1,020 Descending Chicago Center
02:48PM 40.3728 -86.1842 272° West 281 323 7,300 -960 Descending Chicago Center
02:49PM 40.3736 -86.2242 272° West 284 327 7,000 -900 Descending Chicago Center
02:49PM 40.3750 -86.2864 272° West 282 325 6,400 -1,020 Descending Chicago Center
02:49PM 40.3747 -86.3197 269° West 274 315 6,100 -1,080 Descending Chicago Center
02:50PM 40.3758 -86.4125 271° West 260 299 5,200 -960 Descending Chicago Center
02:51PM 40.3786 -86.4925 273° West 263 303 4,300 -1,140 Descending Chicago Center
02:51PM 40.3786 -86.5081 270° West 253 291 4,100 -960 Descending Chicago Center
02:52PM 40.3797 -86.5831 271° West 257 296 3,300 -840 Descending Chicago Center
02:53PM 40.3811 -86.6694 271° West 230 265 2,600 -720 Descending Chicago Center
02:53PM 40.3817 -86.6683 57° Northeast 248 285 2,600 -240 Level Chicago Center
02:54PM 40.3872 -86.7425 276° West 229 264 2,400 -180 Descending Chicago Center
02:56PM 40.3975 -86.8183 280° West 204 235 2,300 -120 Descending Chicago Center